Logo AVAMET
Benvolgut visitant, si us plau, ingressa Recuperar contrasenya

Inforatge Riola

Dades diàries. Acumulats / Últims 30 dies disponibles

Data Temperatura (°C) Humitat rel. (%) Pressió rel. (hPa) Vent (km/h) Precipitació
Mínima Mitjana Màxima Amplitud
tèrmica
Mínima Mitjana Màxima Mínima Mitjana Màxima Predom. Mitjana Ràfega
màxima
Total
(mm)
Índex-n
Mínima Mitjana Màxima Mínima Mitjana Màxima n
0 a 1
P0 max
mm 5'
Dades mensuals acumulades fins l'últim dia disponible
10/2019 11,6 16,7 19,5 20,9 16,1 26,3 35,4 23,8 24 71 94 1.005 1.016 1.023   3,6 33,8 48,8
Dades anuals acumulades fins l'últim dia disponible
2019 1,8 14,6 25,8 19,4 13,2 24,6 41,7 39,9 0 69 96 0 1.014 1.036   4,7 63,0 301,8
Últims 30 dies disponibles
22-10-2019 13,1     14,2     16,1 3,0 77 88 93 1.006 1.011 1.018 OSO 3,8 24,1 32,8
21-10-2019 11,6     15,4     20,4 8,8 46 70 86 1.016 1.017 1.019 SW 4,5 22,5 0,0
20-10-2019 14,0     17,8     20,6 6,6 57 75 86 1.005 1.010 1.016 W 3,1 30,6 1,0
19-10-2019 17,7     21,8     27,8 10,1 45 63 81 1.006 1.010 1.013 SW 4,7 30,6 0,0
18-10-2019 17,4     22,2     28,9 11,5 44 60 75 1.013 1.016 1.018 SW 4,3 27,4 0,0
17-10-2019 15,0     20,9     28,2 13,2 29 47 75 1.015 1.017 1.019 SW 6,8 29,0 0,0
16-10-2019 14,5     19,2     26,6 12,1 30 47 60 1.016 1.019 1.021 SW 5,3 22,5 0,0
15-10-2019 14,6     18,9     24,5 9,9 30 49 71 1.015 1.018 1.021 SW 7,2 33,8 0,0
14-10-2019 19,4     21,5     24,1 4,7 52 86 92 1.011 1.014 1.017 SW 2,4 33,8 7,4 0,31 2,20
13-10-2019 18,4     22,0     26,6 8,2 67 85 94 1.016 1.017 1.018 ENE 2,1 22,5 0,2
12-10-2019 18,4     21,6     25,9 7,5 68 85 93 1.017 1.019 1.020 NE 1,0 14,5 0,0
11-10-2019 18,1     21,8     25,3 7,2 70 85 93 1.019 1.021 1.023 E 3,7 25,7 0,0
10-10-2019 19,2     20,4     21,9 2,7 84 90 92 1.020 1.021 1.023 WNW 0,6 14,5 7,0 0,58 0,60
09-10-2019 17,7     22,3     27,2 9,5 67 79 89 1.016 1.017 1.020 SSE 2,5 24,1 0,0
08-10-2019 16,2     21,8     27,7 11,5 56 75 87 1.016 1.018 1.021 SSO 3,5 25,9 0,0
07-10-2019 18,6     21,9     28,2 9,6 33 73 92 1.015 1.017 1.019 S 2,9 25,9 0,2
06-10-2019 17,1     21,5     27,9 10,8 58 82 92 1.016 1.017 1.019 S 2,9 27,8 0,0
05-10-2019 16,2     21,4     27,1 10,9 55 78 92 1.014 1.015 1.017 SSO 3,2 25,9 0,0
04-10-2019 15,8     22,0     29,7 13,9 30 69 91 1.013 1.016 1.018 SSO 4,7 29,6 0,0
03-10-2019 15,9     20,7     28,1 12,2 32 63 87 1.015 1.017 1.018 SSO 3,7 29,6 0,0
02-10-2019 19,3     23,7     30,2 10,9 30 51 80 1.011 1.014 1.017 SSO 3,3 18,5 0,0
01-10-2019 19,5     25,9     35,4 15,9 24 66 93 1.008 1.011 1.016 SO 2,6 22,6 0,2
30-09-2019 17,3     22,6     27,6 10,3 67 82 90 1.015 1.016 1.018 SSO 1,6 18,5 0,0
29-09-2019 18,7     24,3     30,2 11,5 49 75 92 1.014 1.017 1.020 SSO 3,4 22,6 0,2
28-09-2019 18,1     22,9     28,2 10,1 66 83 92 1.018 1.020 1.022 SSO 2,1 18,5 0,0
27-09-2019 19,7     24,6     31,0 11,3 49 78 92 1.015 1.017 1.019 SSO 3,1 24,1 0,0
26-09-2019 20,2     23,7     28,2 8,0 63 81 90 1.017 1.018 1.021 SSO 3,5 27,8 0,0
25-09-2019 21,6     24,9     29,4 7,8 43 63 87 1.014 1.015 1.018 S 7,2 29,6 0,0
24-09-2019 19,4     26,1     34,6 15,2 24 49 86 1.013 1.016 1.019 SO 6,5 31,5 0,0
23-09-2019 19,2     23,1     27,7 8,5 44 64 86 1.016 1.019 1.021 S 4,7 20,9 0,0
Últims 13 mesos disponibles
09/2019 14,9 19,8 22,6 23,9 22,2 28,4 34,6 19,7 0 73 86 0 984 1.024 S 4,3 48,3 78,2
08/2019 18,5 22,0 25,8 26,5 27,7 31,4 41,7 23,2 47 73 82 1.010 1.016 1.020 S 4,5 42,6 5,0
07/2019 20,2 22,0 24,7 26,8 28,2 31,2 37,5 17,3 50 71 82 1.006 1.014 1.022 SSE 5,1 45,0 2,6
06/2019 13,5 17,3 22,2 22,7 21,5 27,8 34,5 21,0 41 68 80 1.009 1.015 1.022 S 4,9 45,0 0,0
05/2019 9,3 13,9 20,7 19,0 16,9 23,7 33,3 24,0 48 70 87 1.005 1.015 1.024 S 5,3 50,0 5,6
04/2019 8,8 11,4 15,7 15,6 15,0 20,4 30,4 21,6 45 71 95 1.000 1.014 1.026 O 6,0 50,0 135,2
03/2019 5,6 8,4 14,8 14,2 13,2 20,4 28,8 23,2 42 65 92 1.012 1.023 1.030 SO 4,0 40,7 24,6
02/2019 4,8 7,0 11,6 12,4 13,3 18,5 26,1 21,3 38 67 87 995 1.025 1.034 SSO 4,7 63,0 0,6
01/2019 1,8 6,8 13,3 11,4 13,2 17,3 21,3 19,5 42 62 83 1.003 1.020 1.031 OSO 4,7 53,7 1,2
12/2018 4,1 8,4 13,0 13,3 14,1 19,1 24,1 20,0 48 73 89 1.009 1.026 1.031 O 4,0 55,6 20,0
11/2018 6,8 11,8 15,6 15,3 14,8 19,1 23,8 17,0 49 72 94 1.001 1.016 1.025 2,6 55,6 268,4
10/2018 7,5 14,7 19,4 18,6 14,9 23,3 29,7 22,2 49 77 93 1.001 1.015 1.026 SO 3,3 45,0 117,4
09/2018 16,1 20,2 22,4 24,1 23,6 28,3 31,8 15,7 66 81 91 1.013 1.019 1.030 3,2 61,1 105,8
Tots els anys disponibles
2018 1,4 14,2 26,9 18,5 8,5 23,3 37,1 35,7 39 71 94 994 1.017 1.036 SSO 4,6 61,1 718,2
Temperatura (°C)
Humitat relativa (%)
Velocitat del vent i ràfega màxima (km/h)
Direcció del vent (°)
Pressió (hPa)
Precipitació (mm)
Nota sobre les dades: s'avisa a l'usuari de la provisionalitat i no oficialitat d'aquestes dades
Logo AVAMET blanc
Web allotjada a Sollutia
Llicència de Creative CommonsLa web d'AVAMET i els seus continguts estan subjectes a una llicència de
Reconeixement - No Comercial - Compartir igual
Últimes estacions: Sueca - Centre (Inforatge), Xàbia - La Plana (Soci), Banyeres de Mariola - Molí Sol (Soci), Villena - Villa Ventín (Soci), Benissa - Convent (Soci), Xàbia Fontanella (Soci), Castielfabib (Soci) --- Properes estacions: Villena - Serra de Salines (Soci) - - -